Time;durP1;ratioP1;P1;durP2;ratioP2;P2;SDS_P1;SDS_P2;PMS_P1;PMS_P2;Temp;Humidity;BMP_temperature;BMP_pressure;BME280_temperature;BME280_humidity;BME280_pressure;Samples;Min_cycle;Max_cycle;Signal;HPM_P1;HPM_P2
2021/03/13 00:01:01;;;;;;;3.72;1.90;;;23.20;44.10;;;;;;5048272;28;20045;-46
2021/03/13 00:03:27;;;;;;;3.10;1.90;;;23.20;44.10;;;;;;5067605;28;20419;-48
2021/03/13 00:05:54;;;;;;;2.45;1.80;;;23.20;44.10;;;;;;5070020;28;20071;-43
2021/03/13 00:08:21;;;;;;;2.35;1.50;;;23.20;44.10;;;;;;5070995;28;20056;-43
2021/03/13 00:10:48;;;;;;;3.00;2.15;;;23.20;44.10;;;;;;5069869;28;20094;-42
2021/03/13 00:13:16;;;;;;;2.65;1.65;;;23.20;44.10;;;;;;5071889;28;20044;-46
2021/03/13 00:15:43;;;;;;;2.33;1.58;;;23.20;44.10;;;;;;5075711;28;20053;-43
2021/03/13 00:18:11;;;;;;;2.47;1.80;;;23.20;44.10;;;;;;5074745;28;20098;-42
2021/03/13 00:20:40;;;;;;;2.30;1.35;;;23.20;44.10;;;;;;5056953;28;20059;-44
2021/03/13 00:23:07;;;;;;;3.10;1.80;;;23.20;44.10;;;;;;5074898;28;20040;-42
2021/03/13 00:25:36;;;;;;;2.58;1.58;;;23.20;44.10;;;;;;5073241;28;20083;-42
2021/03/13 00:28:04;;;;;;;2.70;1.90;;;23.20;44.10;;;;;;5073172;28;20397;-42
2021/03/13 00:30:37;;;;;;;2.67;1.90;;;23.20;44.10;;;;;;5072364;28;20044;-42
2021/03/13 00:33:12;;;;;;;2.85;1.83;;;23.10;44.00;;;;;;5072969;28;20044;-42
2021/03/13 00:35:41;;;;;;;3.05;1.88;;;23.10;44.00;;;;;;5073904;28;20127;-42
2021/03/13 00:38:08;;;;;;;2.65;1.55;;;23.20;44.10;;;;;;5074123;28;20413;-42
2021/03/13 00:40:39;;;;;;;2.38;1.40;;;23.10;44.00;;;;;;5075535;28;20044;-43
2021/03/13 00:43:08;;;;;;;2.65;1.60;;;23.10;44.00;;;;;;5072941;28;20127;-42
2021/03/13 00:45:35;;;;;;;2.33;1.48;;;23.20;44.10;;;;;;5071649;28;20048;-42
2021/03/13 00:48:03;;;;;;;2.35;1.63;;;23.10;44.00;;;;;;5073432;28;20511;-42
2021/03/13 00:50:32;;;;;;;2.70;1.67;;;23.10;44.00;;;;;;5072654;28;20116;-42
2021/03/13 00:53:00;;;;;;;2.20;1.30;;;23.10;44.00;;;;;;5075426;28;20060;-42
2021/03/13 00:55:28;;;;;;;3.10;1.98;;;23.10;44.10;;;;;;5074007;28;20048;-43
2021/03/13 00:57:54;;;;;;;2.58;1.65;;;23.10;44.00;;;;;;5072836;28;20411;-42
2021/03/13 01:00:38;;;;;;;3.40;1.52;;;23.10;44.00;;;;;;5072436;28;20055;-42
2021/03/13 01:03:06;;;;;;;4.15;2.00;;;23.10;44.00;;;;;;5075191;28;20048;-42
2021/03/13 01:05:34;;;;;;;2.70;1.58;;;23.10;44.00;;;;;;5071060;28;20101;-44
2021/03/13 01:08:02;;;;;;;2.92;1.88;;;23.10;44.00;;;;;;5052371;28;20051;-43
2021/03/13 01:10:47;;;;;;;2.50;1.50;;;23.10;44.00;;;;;;5068587;28;20044;-44
2021/03/13 01:13:14;;;;;;;2.47;1.63;;;23.10;44.00;;;;;;5072474;28;20044;-45
2021/03/13 01:15:42;;;;;;;2.67;1.60;;;23.10;44.10;;;;;;5074871;28;20412;-45
2021/03/13 01:18:09;;;;;;;2.13;1.40;;;23.10;44.10;;;;;;5073268;28;20565;-45
2021/03/13 01:20:36;;;;;;;2.05;1.50;;;23.10;44.10;;;;;;5073230;28;20451;-43
2021/03/13 01:23:03;;;;;;;3.65;1.90;;;23.10;44.10;;;;;;5073080;28;20040;-45
2021/03/13 01:25:30;;;;;;;2.90;1.70;;;23.10;44.10;;;;;;5071325;28;20055;-48
2021/03/13 01:27:56;;;;;;;2.83;1.77;;;23.10;44.10;;;;;;5073243;28;20052;-45
2021/03/13 01:30:24;;;;;;;2.85;1.60;;;23.10;44.10;;;;;;5072199;28;20049;-44
2021/03/13 01:32:52;;;;;;;2.08;1.42;;;23.10;44.10;;;;;;5071645;28;20441;-47
2021/03/13 01:35:20;;;;;;;2.47;1.48;;;23.10;44.10;;;;;;5073515;28;20380;-43
2021/03/13 01:37:47;;;;;;;2.65;1.90;;;23.10;44.70;;;;;;5073256;28;20127;-42
2021/03/13 01:40:15;;;;;;;2.80;1.88;;;23.10;44.10;;;;;;5072957;28;20412;-45
2021/03/13 01:42:46;;;;;;;2.38;1.70;;;23.10;44.10;;;;;;5071960;28;20496;-42
2021/03/13 01:45:15;;;;;;;2.28;1.58;;;23.10;44.10;;;;;;5072652;28;20048;-42
2021/03/13 01:47:43;;;;;;;2.45;1.45;;;23.00;44.00;;;;;;5071877;28;20048;-43
2021/03/13 01:50:12;;;;;;;2.38;1.60;;;23.10;44.10;;;;;;5071557;28;20058;-42
2021/03/13 01:52:39;;;;;;;2.63;1.73;;;23.00;44.00;;;;;;5072431;28;20059;-43
2021/03/13 01:55:11;;;;;;;3.08;1.70;;;23.00;44.00;;;;;;5072143;28;20067;-42
2021/03/13 01:57:40;;;;;;;3.15;1.65;;;23.10;44.10;;;;;;5071173;28;20044;-44
2021/03/13 02:00:13;;;;;;;3.20;1.90;;;23.00;44.00;;;;;;5072653;28;20117;-46
2021/03/13 02:02:40;;;;;;;3.07;1.73;;;23.00;44.00;;;;;;5070543;28;20052;-47
2021/03/13 02:05:30;;;;;;;5.15;1.85;;;23.00;44.00;;;;;;5070009;28;20052;-42
2021/03/13 02:08:26;;;;;;;3.03;2.10;;;23.00;44.00;;;;;;5072254;28;20106;-42
2021/03/13 02:11:19;;;;;;;3.13;1.75;;;23.00;44.00;;;;;;5067008;28;20053;-42
2021/03/13 02:13:57;;;;;;;2.92;1.92;;;23.00;44.00;;;;;;5071833;28;20044;-45
2021/03/13 02:16:39;;;;;;;2.03;1.40;;;23.00;44.00;;;;;;5072002;28;20044;-42
2021/03/13 02:19:15;;;;;;;3.35;2.08;;;23.00;44.00;;;;;;5072205;28;20080;-42
2021/03/13 02:21:50;;;;;;;2.75;1.80;;;23.00;44.00;;;;;;5072361;28;20064;-43
2021/03/13 02:24:29;;;;;;;3.55;1.80;;;23.00;44.00;;;;;;5070368;28;20397;-44
2021/03/13 02:27:25;;;;;;;2.95;1.90;;;23.00;44.00;;;;;;5071197;28;20056;-45
2021/03/13 02:30:00;;;;;;;3.05;2.00;;;23.00;44.00;;;;;;5070267;28;20052;-43
2021/03/13 02:32:46;;;;;;;2.42;1.50;;;23.00;44.00;;;;;;5069310;28;20040;-47
2021/03/13 02:35:25;;;;;;;3.05;1.92;;;23.00;44.00;;;;;;5070541;28;20040;-44
2021/03/13 02:37:54;;;;;;;3.78;1.98;;;23.00;44.00;;;;;;5070150;28;20123;-43
2021/03/13 02:40:25;;;;;;;3.00;1.63;;;23.00;44.00;;;;;;5070816;28;20040;-44
2021/03/13 02:42:57;;;;;;;2.70;1.80;;;23.00;44.00;;;;;;5071392;28;20076;-42
2021/03/13 02:45:30;;;;;;;2.90;1.80;;;23.00;44.00;;;;;;5071427;28;20044;-43
2021/03/13 02:47:59;;;;;;;2.50;1.58;;;23.00;44.00;;;;;;5071904;28;20423;-42
2021/03/13 02:50:28;;;;;;;2.45;1.63;;;23.00;44.00;;;;;;5070625;28;20068;-42
2021/03/13 02:52:55;;;;;;;2.45;1.73;;;23.00;44.00;;;;;;5070312;28;20051;-42
2021/03/13 02:55:24;;;;;;;3.63;2.13;;;23.00;44.00;;;;;;5070632;28;20052;-46
2021/03/13 02:57:54;;;;;;;2.38;1.63;;;23.00;44.00;;;;;;5071827;28;20044;-42
2021/03/13 03:00:23;;;;;;;2.72;1.70;;;23.00;44.00;;;;;;5068863;28;20051;-45
2021/03/13 03:02:54;;;;;;;3.28;1.90;;;23.00;44.00;;;;;;5071568;28;20055;-43
2021/03/13 03:05:24;;;;;;;;;;;23.00;44.00;;;;;;5070904;28;20051;-43
2021/03/13 03:07:53;;;;;;;2.58;1.90;;;23.00;44.00;;;;;;5071771;28;19921;-43
2021/03/13 03:10:26;;;;;;;2.30;1.50;;;23.00;44.00;;;;;;5068793;28;20557;-43
2021/03/13 03:12:55;;;;;;;2.38;1.80;;;23.00;44.00;;;;;;5071527;28;20045;-42
2021/03/13 03:15:25;;;;;;;2.22;1.40;;;23.00;44.00;;;;;;5072757;28;20539;-42
2021/03/13 03:17:54;;;;;;;2.90;1.85;;;22.90;44.00;;;;;;5071783;28;20056;-42
2021/03/13 03:20:22;;;;;;;2.38;1.63;;;23.00;44.00;;;;;;5069820;28;20051;-42
2021/03/13 03:22:50;;;;;;;3.33;1.55;;;22.90;44.00;;;;;;5071285;28;20055;-42
2021/03/13 03:25:16;;;;;;;2.40;1.67;;;22.90;44.00;;;;;;5070247;28;20048;-42
2021/03/13 03:27:50;;;;;;;2.35;1.70;;;22.90;43.90;;;;;;5071100;28;20083;-45
2021/03/13 03:30:25;;;;;;;2.05;1.50;;;22.90;43.90;;;;;;5071330;28;20045;-43
2021/03/13 03:32:52;;;;;;;2.53;1.70;;;22.90;44.00;;;;;;5059506;28;20067;-45
2021/03/13 03:35:21;;;;;;;2.60;1.85;;;22.90;43.90;;;;;;5071001;28;20067;-42
2021/03/13 03:37:50;;;;;;;2.75;1.67;;;22.90;44.00;;;;;;5071337;28;20048;-42
2021/03/13 03:40:18;;;;;;;2.22;1.60;;;22.90;44.50;;;;;;5071634;28;20044;-45
2021/03/13 03:43:03;;;;;;;2.05;1.52;;;22.90;43.90;;;;;;5069378;28;20055;-43
2021/03/13 03:45:32;;;;;;;3.10;1.60;;;22.90;43.90;;;;;;5069881;28;20496;-43
2021/03/13 03:48:07;;;;;;;1.55;1.45;;;22.90;43.90;;;;;;5071013;28;20063;-42
2021/03/13 03:50:35;;;;;;;3.08;2.08;;;22.90;43.90;;;;;;5074865;28;20170;-43
2021/03/13 03:53:04;;;;;;;2.80;1.70;;;22.90;43.90;;;;;;5075210;28;20059;-42
2021/03/13 03:55:31;;;;;;;2.78;1.58;;;22.90;43.90;;;;;;5074751;28;20048;-44
2021/03/13 03:57:59;;;;;;;2.50;1.65;;;22.90;44.00;;;;;;5073422;28;20047;-42
2021/03/13 04:00:26;;;;;;;2.20;1.70;;;22.90;43.90;;;;;;5074688;28;20080;-42
2021/03/13 04:02:56;;;;;;;3.17;1.85;;;22.90;43.90;;;;;;5075256;28;20044;-44
2021/03/13 04:05:24;;;;;;;3.00;1.90;;;22.90;43.90;;;;;;5073801;28;20407;-43
2021/03/13 04:07:54;;;;;;;2.38;1.60;;;22.90;43.90;;;;;;5074591;28;20123;-45
2021/03/13 04:10:23;;;;;;;2.30;1.38;;;22.90;43.90;;;;;;5074525;28;20048;-42
2021/03/13 04:12:52;;;;;;;2.53;1.60;;;22.90;43.90;;;;;;5075486;28;20408;-42
2021/03/13 04:15:19;;;;;;;2.20;1.35;;;22.90;43.90;;;;;;5073828;28;20045;-44
2021/03/13 04:17:47;;;;;;;2.20;1.50;;;22.90;44.00;;;;;;5073840;28;20049;-42
2021/03/13 04:20:16;;;;;;;3.72;1.90;;;22.90;43.90;;;;;;5073560;28;20040;-44
2021/03/13 04:22:46;;;;;;;3.17;1.83;;;22.90;44.00;;;;;;5074629;28;20048;-43
2021/03/13 04:25:15;;;;;;;2.15;1.40;;;22.90;44.00;;;;;;5073147;28;20132;-43
2021/03/13 04:27:45;;;;;;;2.15;1.70;;;22.90;43.90;;;;;;5073057;28;20087;-42
2021/03/13 04:30:17;;;;;;;2.35;1.65;;;22.90;44.00;;;;;;5074288;28;20094;-44
2021/03/13 04:32:47;;;;;;;3.63;1.80;;;22.90;43.90;;;;;;5073302;28;20388;-44
2021/03/13 04:35:15;;;;;;;2.00;1.60;;;22.90;44.00;;;;;;5073793;28;20047;-43
2021/03/13 04:37:44;;;;;;;2.08;1.63;;;22.90;43.90;;;;;;5071668;28;20146;-43
2021/03/13 04:40:12;;;;;;;2.10;1.50;;;22.90;43.90;;;;;;5074513;28;20041;-43
2021/03/13 04:42:40;;;;;;;2.70;1.70;;;22.90;43.90;;;;;;5074396;28;20056;-43
2021/03/13 04:45:14;;;;;;;2.38;1.52;;;22.80;43.80;;;;;;5074163;28;20049;-44
2021/03/13 04:47:44;;;;;;;2.22;1.45;;;22.80;43.80;;;;;;5073458;28;20164;-43
2021/03/13 04:50:17;;;;;;;2.75;1.63;;;22.80;43.80;;;;;;5073532;28;20049;-44
2021/03/13 04:52:44;;;;;;;2.17;1.20;;;22.80;43.80;;;;;;5075409;28;20060;-42
2021/03/13 04:55:12;;;;;;;2.60;1.33;;;22.80;43.80;;;;;;5072747;28;20045;-44
2021/03/13 04:57:39;;;;;;;2.28;1.75;;;22.80;43.90;;;;;;5074084;28;20079;-44
2021/03/13 05:00:09;;;;;;;2.15;1.63;;;22.80;43.90;;;;;;5072045;28;20528;-47
2021/03/13 05:02:37;;;;;;;2.05;1.60;;;22.80;43.80;;;;;;5072641;28;20124;-45
2021/03/13 05:05:06;;;;;;;1.70;1.35;;;22.80;43.90;;;;;;5073555;28;20062;-43
2021/03/13 05:07:33;;;;;;;2.22;1.40;;;22.80;43.80;;;;;;5072299;28;20052;-43
2021/03/13 05:09:59;;;;;;;2.20;1.67;;;22.80;43.80;;;;;;5073804;28;20452;-42
2021/03/13 05:12:26;;;;;;;1.85;1.55;;;22.80;43.80;;;;;;5073444;28;20040;-43
2021/03/13 05:14:53;;;;;;;2.47;1.25;;;22.80;43.80;;;;;;5073154;28;20563;-46
2021/03/13 05:17:20;;;;;;;1.85;1.35;;;22.80;43.80;;;;;;5073594;28;20135;-43
2021/03/13 05:19:47;;;;;;;2.00;1.45;;;22.80;43.90;;;;;;5071635;28;20058;-45
2021/03/13 05:22:13;;;;;;;2.40;1.52;;;22.80;43.90;;;;;;5073329;28;20070;-43
2021/03/13 05:24:40;;;;;;;2.33;1.50;;;22.80;43.90;;;;;;5073434;28;20407;-44
2021/03/13 05:27:07;;;;;;;2.38;1.58;;;22.80;43.90;;;;;;5073223;28;20060;-45
2021/03/13 05:29:34;;;;;;;2.45;1.60;;;22.80;43.80;;;;;;5072565;28;20484;-43
2021/03/13 05:32:01;;;;;;;2.40;1.40;;;22.80;43.80;;;;;;5071740;28;20044;-45
2021/03/13 05:34:29;;;;;;;2.15;1.65;;;22.80;43.90;;;;;;5071855;28;20102;-42
2021/03/13 05:36:55;;;;;;;2.70;1.70;;;22.80;43.80;;;;;;5072790;28;20127;-44
2021/03/13 05:39:22;;;;;;;1.73;1.30;;;22.80;43.90;;;;;;5073208;28;20119;-45
2021/03/13 05:41:51;;;;;;;2.35;1.42;;;22.80;43.80;;;;;;5072013;28;20049;-43
2021/03/13 05:44:19;;;;;;;1.83;1.35;;;22.80;43.80;;;;;;5073056;28;20058;-42
2021/03/13 05:46:46;;;;;;;2.67;1.88;;;22.80;43.90;;;;;;5071822;28;20048;-43
2021/03/13 05:49:13;;;;;;;1.90;1.50;;;22.80;43.80;;;;;;5072908;28;20049;-43
2021/03/13 05:51:45;;;;;;;2.22;1.38;;;22.80;43.90;;;;;;5071313;28;20051;-43
2021/03/13 05:54:16;;;;;;;2.45;1.55;;;22.80;43.80;;;;;;5074267;28;20064;-46
2021/03/13 05:56:44;;;;;;;2.08;1.50;;;22.80;43.90;;;;;;5071567;28;20072;-42
2021/03/13 05:59:13;;;;;;;2.42;1.45;;;22.90;44.00;;;;;;5070806;28;20044;-43
2021/03/13 06:01:40;;;;;;;1.85;1.40;;;22.80;43.90;;;;;;5072739;28;20079;-42
2021/03/13 06:04:23;;;;;;;2.37;1.53;;;22.80;43.90;;;;;;5071283;28;20045;-43
2021/03/13 06:06:52;;;;;;;1.98;1.30;;;22.80;43.80;;;;;;5071223;28;20294;-42
2021/03/13 06:09:20;;;;;;;1.80;1.50;;;22.80;43.80;;;;;;5072136;28;20127;-42
2021/03/13 06:11:46;;;;;;;2.10;1.40;;;22.80;43.80;;;;;;5072072;28;20049;-42
2021/03/13 06:14:13;;;;;;;2.83;1.40;;;22.80;43.90;;;;;;5071663;28;20052;-42
2021/03/13 06:16:41;;;;;;;2.42;1.70;;;22.80;43.80;;;;;;5071912;28;20041;-42
2021/03/13 06:19:08;;;;;;;2.70;1.40;;;22.80;43.80;;;;;;5072256;28;20052;-42
2021/03/13 06:21:40;;;;;;;1.80;1.40;;;22.80;43.80;;;;;;5072265;28;20056;-42
2021/03/13 06:24:32;;;;;;;2.15;1.70;;;22.80;43.80;;;;;;5071182;28;20064;-44
2021/03/13 06:27:00;;;;;;;1.95;1.30;;;22.80;43.80;;;;;;5070664;28;20467;-42
2021/03/13 06:29:29;;;;;;;2.08;1.52;;;22.80;43.80;;;;;;5070336;28;20193;-42
2021/03/13 06:32:13;;;;;;;2.33;1.58;;;22.80;43.80;;;;;;5069764;28;20059;-43
2021/03/13 06:35:22;;;;;;;1.35;1.25;;;22.90;43.90;;;;;;5073396;28;20407;-44
2021/03/13 06:37:51;;;;;;;2.20;1.38;;;22.90;43.90;;;;;;5070732;28;20044;-42
2021/03/13 06:40:37;;;;;;;2.05;1.40;;;22.90;43.90;;;;;;5070623;28;20048;-42
2021/03/13 06:43:31;;;;;;;1.80;1.30;;;22.90;43.90;;;;;;5070678;28;20079;-42
2021/03/13 06:46:06;;;;;;;1.90;1.40;;;22.90;44.10;;;;;;5070979;28;20048;-42
2021/03/13 06:48:35;;;;;;;1.80;1.30;;;22.90;43.90;;;;;;5070939;28;20045;-42
2021/03/13 06:51:27;;;;;;;1.77;1.40;;;22.90;43.90;;;;;;5073330;28;20056;-42
2021/03/13 06:54:06;;;;;;;1.48;1.20;;;22.90;43.90;;;;;;5072203;28;20041;-43
2021/03/13 06:56:55;;;;;;;2.10;1.30;;;22.90;43.90;;;;;;5071564;28;20523;-42
2021/03/13 06:59:33;;;;;;;2.15;1.58;;;22.90;43.90;;;;;;5064820;28;20471;-42
2021/03/13 07:02:08;;;;;;;2.38;1.52;;;22.90;43.80;;;;;;5070434;28;20058;-43
2021/03/13 07:04:42;;;;;;;1.83;1.40;;;22.90;43.80;;;;;;5070292;28;20048;-42
2021/03/13 07:07:13;;;;;;;1.63;1.17;;;22.90;43.80;;;;;;5071336;28;20055;-42
2021/03/13 07:09:54;;;;;;;2.28;1.38;;;22.90;43.80;;;;;;5070298;28;20445;-44
2021/03/13 07:12:35;;;;;;;1.90;1.52;;;22.90;43.80;;;;;;5070250;28;20049;-46
2021/03/13 07:15:27;;;;;;;1.63;1.25;;;22.90;43.80;;;;;;5071781;28;20051;-42
2021/03/13 07:17:58;;;;;;;1.95;1.20;;;22.90;43.80;;;;;;5071655;28;20385;-42
2021/03/13 07:20:33;;;;;;;2.17;1.42;;;22.90;43.80;;;;;;5070241;28;20045;-42
2021/03/13 07:23:03;;;;;;;2.38;1.40;;;22.90;43.80;;;;;;5072279;28;20094;-44
2021/03/13 07:25:30;;;;;;;2.15;1.45;;;22.90;43.80;;;;;;5076223;28;20041;-42
2021/03/13 07:28:00;;;;;;;2.45;1.40;;;22.90;43.80;;;;;;5075364;28;20419;-43
2021/03/13 07:30:28;;;;;;;1.80;1.00;;;22.90;43.80;;;;;;5073734;28;20055;-43
2021/03/13 07:33:10;;;;;;;1.65;1.30;;;22.90;43.80;;;;;;5075764;28;20067;-46
2021/03/13 07:35:46;;;;;;;2.15;1.48;;;22.90;43.80;;;;;;5076857;28;20041;-44
2021/03/13 07:38:15;;;;;;;1.77;1.38;;;22.90;43.80;;;;;;5074236;28;20049;-43
2021/03/13 07:40:47;;;;;;;2.92;1.38;;;22.90;43.80;;;;;;5073405;28;20105;-43
2021/03/13 07:43:16;;;;;;;1.98;1.45;;;22.90;43.80;;;;;;5074699;28;20052;-42
2021/03/13 07:45:46;;;;;;;1.90;1.30;;;23.00;43.80;;;;;;5074364;28;20090;-42
2021/03/13 07:48:15;;;;;;;1.65;1.23;;;23.00;43.80;;;;;;5074095;28;20127;-42
2021/03/13 07:50:46;;;;;;;1.70;1.30;;;23.00;43.80;;;;;;5072705;28;20478;-42
2021/03/13 07:53:15;;;;;;;2.28;1.42;;;23.00;43.80;;;;;;5073732;28;20500;-42
2021/03/13 07:55:52;;;;;;;2.35;1.42;;;23.00;43.80;;;;;;5073646;28;20102;-42
2021/03/13 07:58:21;;;;;;;1.67;1.25;;;23.00;43.80;;;;;;5075886;28;20123;-42
2021/03/13 08:00:48;;;;;;;1.95;1.17;;;23.00;43.80;;;;;;5076057;28;20040;-42
2021/03/13 08:03:28;;;;;;;2.30;1.50;;;23.00;43.80;;;;;;5072294;28;20131;-42
2021/03/13 08:06:05;;;;;;;2.10;1.40;;;23.00;43.80;;;;;;5073662;28;20508;-42
2021/03/13 08:08:48;;;;;;;1.83;1.20;;;23.00;43.80;;;;;;5075900;28;20053;-41
2021/03/13 08:11:16;;;;;;;1.63;1.17;;;23.00;43.80;;;;;;5074398;28;20132;-42
2021/03/13 08:13:48;;;;;;;2.47;1.60;;;23.00;43.80;;;;;;5074525;28;20044;-42
2021/03/13 08:16:20;;;;;;;1.70;1.08;;;23.00;43.80;;;;;;5073416;28;20048;-42
2021/03/13 08:18:53;;;;;;;1.50;1.00;;;23.00;43.70;;;;;;5073528;28;20408;-43
2021/03/13 08:21:20;;;;;;;1.40;1.10;;;23.00;43.70;;;;;;5057549;28;20079;-42
2021/03/13 08:23:55;;;;;;;2.10;1.15;;;23.00;43.80;;;;;;5074906;28;20282;-42
2021/03/13 08:26:36;;;;;;;1.52;0.98;;;23.00;43.70;;;;;;5074039;28;20056;-42
2021/03/13 08:29:11;;;;;;;2.25;1.55;;;23.00;43.70;;;;;;5074269;28;20438;-43
2021/03/13 08:31:46;;;;;;;1.80;1.40;;;23.00;43.70;;;;;;5072870;28;20072;-43
2021/03/13 08:34:19;;;;;;;1.52;1.25;;;23.00;43.70;;;;;;5072298;28;20409;-42
2021/03/13 08:36:51;;;;;;;2.03;1.40;;;23.00;43.60;;;;;;5073248;28;20055;-42
2021/03/13 08:39:20;;;;;;;2.15;1.30;;;23.00;43.60;;;;;;5073871;28;20508;-42
2021/03/13 08:42:05;;;;;;;1.83;1.45;;;23.00;43.60;;;;;;5072815;28;20139;-44
2021/03/13 08:44:38;;;;;;;2.10;1.50;;;23.00;43.60;;;;;;5074231;28;20097;-42
2021/03/13 08:47:09;;;;;;;2.17;1.48;;;23.00;43.60;;;;;;5074470;28;20055;-43
2021/03/13 08:49:39;;;;;;;4.45;1.50;;;23.00;43.60;;;;;;5072760;28;20055;-42
2021/03/13 08:52:09;;;;;;;1.48;1.00;;;23.00;43.60;;;;;;5072739;28;20510;-44
2021/03/13 08:54:38;;;;;;;1.67;1.02;;;23.00;43.60;;;;;;5072525;28;20123;-47
2021/03/13 08:57:32;;;;;;;1.58;1.05;;;23.10;43.70;;;;;;5072726;28;20571;-43
2021/03/13 09:00:00;;;;;;;1.55;1.10;;;23.10;43.60;;;;;;5066882;28;20049;-42
2021/03/13 09:02:32;;;;;;;2.15;1.40;;;23.10;43.60;;;;;;5072645;28;20048;-43
2021/03/13 09:05:12;;;;;;;2.00;1.20;;;23.10;43.60;;;;;;5074303;28;20049;-43
2021/03/13 09:07:52;;;;;;;1.40;1.15;;;23.10;43.60;;;;;;5072369;28;20560;-45
2021/03/13 09:10:20;;;;;;;2.15;1.30;;;23.10;43.50;;;;;;5073600;28;20454;-43
2021/03/13 09:12:47;;;;;;;2.05;1.40;;;23.10;43.50;;;;;;5072405;28;20045;-43
2021/03/13 09:15:16;;;;;;;2.13;1.48;;;23.10;43.50;;;;;;5056171;28;20511;-42
2021/03/13 09:17:43;;;;;;;1.48;1.05;;;23.10;43.50;;;;;;5073385;28;20052;-44
2021/03/13 09:20:14;;;;;;;1.83;1.50;;;23.10;43.50;;;;;;5073399;28;20044;-43
2021/03/13 09:22:46;;;;;;;2.78;1.30;;;23.10;43.50;;;;;;5072289;28;20128;-42
2021/03/13 09:25:21;;;;;;;2.50;1.40;;;23.10;43.50;;;;;;5073688;28;20052;-44
2021/03/13 09:27:52;;;;;;;1.65;1.30;;;23.10;43.40;;;;;;5073236;28;20135;-42
2021/03/13 09:30:22;;;;;;;2.05;1.27;;;23.10;43.40;;;;;;5070378;28;20131;-43
2021/03/13 09:32:51;;;;;;;1.52;1.05;;;23.10;43.30;;;;;;5072329;28;20045;-43
2021/03/13 09:35:24;;;;;;;1.85;1.40;;;23.10;43.30;;;;;;5071784;28;20045;-43
2021/03/13 09:37:51;;;;;;;1.20;1.02;;;23.10;43.30;;;;;;5072833;28;20044;-42
2021/03/13 09:40:20;;;;;;;2.42;1.35;;;23.10;43.30;;;;;;5074519;28;20074;-44
2021/03/13 09:42:48;;;;;;;1.45;1.13;;;23.10;43.30;;;;;;5071606;28;20131;-42
2021/03/13 09:45:16;;;;;;;3.10;1.30;;;23.10;43.20;;;;;;5071176;28;20048;-42
2021/03/13 09:47:49;;;;;;;1.88;1.23;;;23.20;43.30;;;;;;5071619;28;20041;-45
2021/03/13 09:50:20;;;;;;;1.73;1.30;;;23.20;43.30;;;;;;5072766;28;20052;-42
2021/03/13 09:52:48;;;;;;;1.60;1.20;;;23.20;43.30;;;;;;5071982;28;20051;-43
2021/03/13 09:55:20;;;;;;;1.33;0.98;;;23.20;43.20;;;;;;5073170;28;20064;-43
2021/03/13 09:57:58;;;;;;;1.80;1.20;;;23.20;43.20;;;;;;5071152;28;20044;-43
2021/03/13 10:00:26;;;;;;;3.42;1.23;;;23.20;43.20;;;;;;5073444;28;20051;-42
2021/03/13 10:02:56;;;;;;;1.40;0.90;;;23.20;43.20;;;;;;5072273;28;20055;-45
2021/03/13 10:05:29;;;;;;;1.38;0.90;;;23.20;43.20;;;;;;5072649;28;20057;-46
2021/03/13 10:08:03;;;;;;;1.48;1.08;;;23.20;43.20;;;;;;5073036;28;20044;-43
2021/03/13 10:10:30;;;;;;;1.83;1.25;;;23.20;43.10;;;;;;5071225;28;20071;-44
2021/03/13 10:13:02;;;;;;;2.25;1.10;;;23.20;43.10;;;;;;5072222;28;20044;-43
2021/03/13 10:15:35;;;;;;;2.08;1.10;;;23.20;43.10;;;;;;5072694;28;20036;-44
2021/03/13 10:18:02;;;;;;;1.52;1.30;;;23.20;43.10;;;;;;5071383;28;20044;-43
2021/03/13 10:20:31;;;;;;;1.40;1.00;;;23.20;43.10;;;;;;5070919;28;20492;-42
2021/03/13 10:23:12;;;;;;;2.40;1.30;;;23.20;43.00;;;;;;5070808;28;20056;-44
2021/03/13 10:25:42;;;;;;;1.30;1.00;;;23.20;43.00;;;;;;5070908;28;20057;-43
2021/03/13 10:28:14;;;;;;;1.48;1.00;;;23.20;43.00;;;;;;5054854;28;20080;-43
2021/03/13 10:30:43;;;;;;;1.80;1.08;;;23.20;43.00;;;;;;5070637;28;20404;-42
2021/03/13 10:33:12;;;;;;;1.67;1.10;;;23.20;43.00;;;;;;5070725;28;20072;-45
2021/03/13 10:35:39;;;;;;;1.83;1.27;;;23.20;43.00;;;;;;5073404;28;20411;-43
2021/03/13 10:38:09;;;;;;;2.10;1.40;;;23.20;43.00;;;;;;5072143;28;20040;-44
2021/03/13 10:40:45;;;;;;;1.40;1.10;;;23.20;43.00;;;;;;5069575;28;20048;-47
2021/03/13 10:43:25;;;;;;;1.42;1.13;;;23.20;43.00;;;;;;5071992;28;20415;-43
2021/03/13 10:45:58;;;;;;;1.60;1.10;;;23.20;43.00;;;;;;5071687;28;20131;-46
2021/03/13 10:48:30;;;;;;;1.95;1.20;;;23.20;43.00;;;;;;5071635;28;20051;-46
2021/03/13 10:50:57;;;;;;;1.30;0.85;;;23.20;43.00;;;;;;5071042;28;20048;-43
2021/03/13 10:53:36;;;;;;;1.50;1.00;;;23.20;43.00;;;;;;5070255;28;20052;-43
2021/03/13 10:56:03;;;;;;;1.58;1.17;;;23.20;43.00;;;;;;5071694;28;20051;-44
2021/03/13 10:58:35;;;;;;;1.50;1.17;;;23.20;43.00;;;;;;5069532;28;20051;-43
2021/03/13 11:01:05;;;;;;;1.30;0.98;;;23.20;43.00;;;;;;5070457;28;20098;-43
2021/03/13 11:03:33;;;;;;;1.70;1.00;;;23.20;43.00;;;;;;5071449;28;20048;-43
2021/03/13 11:06:01;;;;;;;1.30;0.95;;;23.20;43.00;;;;;;5070578;28;20048;-43
2021/03/13 11:08:30;;;;;;;1.20;0.88;;;23.30;43.00;;;;;;5071685;28;20052;-43
2021/03/13 11:10:58;;;;;;;1.30;1.10;;;23.20;43.00;;;;;;5070777;28;20059;-44
2021/03/13 11:13:25;;;;;;;1.13;0.80;;;23.30;43.00;;;;;;5071030;28;20051;-45
2021/03/13 11:15:54;;;;;;;1.55;1.20;;;23.20;43.00;;;;;;5073343;28;20484;-43
2021/03/13 11:18:21;;;;;;;2.15;1.38;;;23.20;43.00;;;;;;5070431;28;20471;-43
2021/03/13 11:20:48;;;;;;;1.38;0.80;;;23.20;43.00;;;;;;5072626;28;20060;-44
2021/03/13 11:23:15;;;;;;;1.35;0.98;;;23.30;43.10;;;;;;5071209;28;20059;-46
2021/03/13 11:25:43;;;;;;;1.58;0.90;;;23.20;43.00;;;;;;5071835;28;20049;-50
2021/03/13 11:28:10;;;;;;;1.60;1.13;;;23.30;43.10;;;;;;5069767;28;20061;-46
2021/03/13 11:30:37;;;;;;;1.60;1.13;;;23.30;43.00;;;;;;5069114;28;20127;-44
2021/03/13 11:33:04;;;;;;;1.67;0.93;;;23.20;43.00;;;;;;5070323;28;20240;-44
2021/03/13 11:35:32;;;;;;;1.40;1.20;;;23.30;43.00;;;;;;5071413;28;20095;-43
2021/03/13 11:37:58;;;;;;;1.58;1.10;;;23.30;43.00;;;;;;5071263;28;20056;-42
2021/03/13 11:40:25;;;;;;;1.70;1.10;;;23.30;43.00;;;;;;5069883;28;20081;-43
2021/03/13 11:42:54;;;;;;;1.17;0.90;;;23.30;43.00;;;;;;5071437;28;20139;-43
2021/03/13 11:45:22;;;;;;;1.40;1.00;;;23.30;43.00;;;;;;5071273;28;20059;-42
2021/03/13 11:47:50;;;;;;;1.75;1.20;;;23.30;43.00;;;;;;5069999;28;20083;-44
2021/03/13 11:50:18;;;;;;;1.83;1.20;;;23.30;43.00;;;;;;5069757;28;20055;-44
2021/03/13 11:52:45;;;;;;;2.28;1.20;;;23.30;43.00;;;;;;5069121;28;20044;-42
2021/03/13 11:55:13;;;;;;;1.40;1.05;;;23.30;43.00;;;;;;5070224;28;20090;-44
2021/03/13 11:57:40;;;;;;;1.98;1.20;;;23.30;43.00;;;;;;5069758;28;20044;-43
2021/03/13 12:00:10;;;;;;;1.25;0.90;;;23.30;43.00;;;;;;5070762;28;20052;-43
2021/03/13 12:02:37;;;;;;;1.73;1.00;;;23.30;43.00;;;;;;5071086;28;20052;-42
2021/03/13 12:05:06;;;;;;;1.45;1.00;;;23.30;43.00;;;;;;5070071;28;20564;-43
2021/03/13 12:07:35;;;;;;;1.33;1.08;;;23.30;43.10;;;;;;5071274;28;20049;-48
2021/03/13 12:10:03;;;;;;;0.90;0.80;;;23.30;43.00;;;;;;5073498;28;20158;-42
2021/03/13 12:12:30;;;;;;;1.48;0.90;;;23.30;43.10;;;;;;5074655;28;20051;-42
2021/03/13 12:14:56;;;;;;;2.28;1.40;;;23.30;43.00;;;;;;5074326;28;20080;-46
2021/03/13 12:17:23;;;;;;;1.40;0.93;;;23.30;43.00;;;;;;5074587;28;20144;-45
2021/03/13 12:19:50;;;;;;;1.38;1.08;;;23.30;43.00;;;;;;5073204;28;20040;-44
2021/03/13 12:22:20;;;;;;;1.20;0.77;;;23.40;43.10;;;;;;5073302;28;20051;-47
2021/03/13 12:24:46;;;;;;;1.40;1.10;;;23.30;43.10;;;;;;5074625;28;20123;-43
2021/03/13 12:27:13;;;;;;;1.20;1.00;;;23.30;43.00;;;;;;5072918;28;20059;-44
2021/03/13 12:29:40;;;;;;;1.58;0.93;;;23.30;43.10;;;;;;5075753;28;20056;-45
2021/03/13 12:32:08;;;;;;;1.95;0.93;;;23.30;43.10;;;;;;5073108;28;20127;-42
2021/03/13 12:34:35;;;;;;;1.20;0.88;;;23.40;43.20;;;;;;5073003;28;20051;-46
2021/03/13 12:37:03;;;;;;;1.25;0.80;;;23.30;43.10;;;;;;5073182;28;20059;-43
2021/03/13 12:39:30;;;;;;;1.88;0.90;;;23.30;43.10;;;;;;5073638;28;20050;-42
2021/03/13 12:41:57;;;;;;;1.48;1.10;;;23.30;43.10;;;;;;5071739;28;20098;-44
2021/03/13 12:44:23;;;;;;;1.40;1.00;;;23.30;43.10;;;;;;5073626;28;20040;-42
2021/03/13 12:46:51;;;;;;;1.80;1.00;;;23.30;43.10;;;;;;5071783;28;20199;-44
2021/03/13 12:49:17;;;;;;;1.15;0.88;;;23.30;43.10;;;;;;5074060;28;20400;-43
2021/03/13 12:51:45;;;;;;;1.25;0.95;;;23.40;43.20;;;;;;5072848;28;20446;-43
2021/03/13 12:54:12;;;;;;;1.65;0.95;;;23.30;43.10;;;;;;5072652;28;20045;-44
2021/03/13 12:56:39;;;;;;;2.03;0.90;;;23.40;43.20;;;;;;5055120;28;20499;-44
2021/03/13 12:59:05;;;;;;;0.93;0.70;;;23.30;43.10;;;;;;5072784;28;20066;-47
2021/03/13 13:01:32;;;;;;;1.58;1.00;;;23.30;43.10;;;;;;5073643;28;20052;-43
2021/03/13 13:04:02;;;;;;;1.75;1.00;;;23.40;43.20;;;;;;5072386;28;20603;-44
2021/03/13 13:06:32;;;;;;;1.55;1.05;;;23.40;43.20;;;;;;5073016;28;20477;-48